sensor_id;sensor_type;location;lat;lon;timestamp;P1;durP1;ratioP1;P2;durP2;ratioP2
20935;SDS011;10627;54.514;18.532;2023-04-24T00:04:53;1119.97;;;837.17;;
20935;SDS011;10627;54.514;18.532;2023-04-24T00:09:54;1113.37;;;824.77;;
20935;SDS011;10627;54.514;18.532;2023-04-24T00:14:54;1119.87;;;829.43;;
20935;SDS011;10627;54.514;18.532;2023-04-24T00:19:55;1105.77;;;809.20;;
20935;SDS011;10627;54.514;18.532;2023-04-24T00:24:58;1093.93;;;784.37;;
20935;SDS011;10627;54.514;18.532;2023-04-24T00:29:59;1088.43;;;757.40;;
20935;SDS011;10627;54.514;18.532;2023-04-24T00:34:59;1077.27;;;744.80;;
20935;SDS011;10627;54.514;18.532;2023-04-24T00:40:00;1079.30;;;744.20;;
20935;SDS011;10627;54.514;18.532;2023-04-24T00:45:00;1080.70;;;753.30;;
20935;SDS011;10627;54.514;18.532;2023-04-24T00:50:04;1074.47;;;728.13;;
20935;SDS011;10627;54.514;18.532;2023-04-24T00:55:06;1082.47;;;733.57;;
20935;SDS011;10627;54.514;18.532;2023-04-24T01:00:07;1078.37;;;736.13;;
20935;SDS011;10627;54.514;18.532;2023-04-24T01:05:11;1075.47;;;728.73;;
20935;SDS011;10627;54.514;18.532;2023-04-24T01:10:13;1063.87;;;709.77;;
20935;SDS011;10627;54.514;18.532;2023-04-24T01:15:14;1070.63;;;715.50;;
20935;SDS011;10627;54.514;18.532;2023-04-24T01:20:16;1074.70;;;728.90;;
20935;SDS011;10627;54.514;18.532;2023-04-24T01:25:17;1080.77;;;739.67;;
20935;SDS011;10627;54.514;18.532;2023-04-24T01:30:17;1078.63;;;727.57;;
20935;SDS011;10627;54.514;18.532;2023-04-24T01:35:18;1073.83;;;724.53;;
20935;SDS011;10627;54.514;18.532;2023-04-24T01:40:19;1086.13;;;740.67;;
20935;SDS011;10627;54.514;18.532;2023-04-24T01:45:19;1083.17;;;733.27;;
20935;SDS011;10627;54.514;18.532;2023-04-24T01:50:20;1089.57;;;740.97;;
20935;SDS011;10627;54.514;18.532;2023-04-24T01:55:21;1083.70;;;734.40;;
20935;SDS011;10627;54.514;18.532;2023-04-24T02:00:21;1088.67;;;738.03;;
20935;SDS011;10627;54.514;18.532;2023-04-24T02:05:22;1092.70;;;737.63;;
20935;SDS011;10627;54.514;18.532;2023-04-24T02:10:23;1093.90;;;739.57;;
20935;SDS011;10627;54.514;18.532;2023-04-24T02:15:23;1087.23;;;722.70;;
20935;SDS011;10627;54.514;18.532;2023-04-24T02:20:24;1085.27;;;717.00;;
20935;SDS011;10627;54.514;18.532;2023-04-24T02:25:24;1084.17;;;710.10;;
20935;SDS011;10627;54.514;18.532;2023-04-24T02:30:27;1081.33;;;711.13;;
20935;SDS011;10627;54.514;18.532;2023-04-24T02:35:28;1083.33;;;718.70;;
20935;SDS011;10627;54.514;18.532;2023-04-24T02:40:28;1079.23;;;704.13;;
20935;SDS011;10627;54.514;18.532;2023-04-24T02:45:29;1080.20;;;688.47;;
20935;SDS011;10627;54.514;18.532;2023-04-24T02:50:30;1081.57;;;700.07;;
20935;SDS011;10627;54.514;18.532;2023-04-24T02:55:30;1085.00;;;704.53;;
20935;SDS011;10627;54.514;18.532;2023-04-24T03:00:31;1078.63;;;695.77;;
20935;SDS011;10627;54.514;18.532;2023-04-24T03:05:32;1085.00;;;708.97;;
20935;SDS011;10627;54.514;18.532;2023-04-24T03:10:32;1084.50;;;706.80;;
20935;SDS011;10627;54.514;18.532;2023-04-24T03:15:33;1077.57;;;697.37;;
20935;SDS011;10627;54.514;18.532;2023-04-24T03:20:33;1079.13;;;694.97;;
20935;SDS011;10627;54.514;18.532;2023-04-24T03:25:34;1081.73;;;704.47;;
20935;SDS011;10627;54.514;18.532;2023-04-24T03:30:35;1079.97;;;691.37;;
20935;SDS011;10627;54.514;18.532;2023-04-24T03:35:38;1078.17;;;697.13;;
20935;SDS011;10627;54.514;18.532;2023-04-24T03:40:42;1076.63;;;688.87;;
20935;SDS011;10627;54.514;18.532;2023-04-24T03:46:03;1071.33;;;682.57;;
20935;SDS011;10627;54.514;18.532;2023-04-24T03:51:07;1084.47;;;701.13;;
20935;SDS011;10627;54.514;18.532;2023-04-24T03:56:10;1077.57;;;682.13;;
20935;SDS011;10627;54.514;18.532;2023-04-24T04:01:11;1081.97;;;681.07;;
20935;SDS011;10627;54.514;18.532;2023-04-24T04:06:23;1074.83;;;691.57;;
20935;SDS011;10627;54.514;18.532;2023-04-24T04:11:26;1077.77;;;686.53;;
20935;SDS011;10627;54.514;18.532;2023-04-24T04:26:58;1057.20;;;653.73;;
20935;SDS011;10627;54.514;18.532;2023-04-24T04:32:03;1092.67;;;797.10;;
20935;SDS011;10627;54.514;18.532;2023-04-24T04:37:04;1122.20;;;780.50;;
20935;SDS011;10627;54.514;18.532;2023-04-24T04:42:20;901.13;;;809.67;;
20935;SDS011;10627;54.514;18.532;2023-04-24T04:47:21;977.30;;;808.50;;
20935;SDS011;10627;54.514;18.532;2023-04-24T04:52:27;927.47;;;813.87;;
20935;SDS011;10627;54.514;18.532;2023-04-24T04:57:37;944.33;;;824.10;;
20935;SDS011;10627;54.514;18.532;2023-04-24T05:02:39;1040.67;;;842.60;;
20935;SDS011;10627;54.514;18.532;2023-04-24T05:07:40;1165.53;;;852.00;;
20935;SDS011;10627;54.514;18.532;2023-04-24T05:12:43;1043.33;;;848.13;;
20935;SDS011;10627;54.514;18.532;2023-04-24T05:17:44;1169.30;;;827.90;;
20935;SDS011;10627;54.514;18.532;2023-04-24T05:22:46;1104.33;;;851.40;;
20935;SDS011;10627;54.514;18.532;2023-04-24T05:27:48;1175.97;;;844.17;;
20935;SDS011;10627;54.514;18.532;2023-04-24T05:32:51;1178.30;;;843.67;;
20935;SDS011;10627;54.514;18.532;2023-04-24T05:37:52;1173.30;;;884.90;;
20935;SDS011;10627;54.514;18.532;2023-04-24T05:42:52;1102.10;;;896.70;;
20935;SDS011;10627;54.514;18.532;2023-04-24T05:47:54;1119.07;;;894.30;;
20935;SDS011;10627;54.514;18.532;2023-04-24T05:52:56;1033.80;;;890.10;;
20935;SDS011;10627;54.514;18.532;2023-04-24T05:58:04;1068.63;;;894.40;;
20935;SDS011;10627;54.514;18.532;2023-04-24T06:03:06;1067.63;;;897.23;;
20935;SDS011;10627;54.514;18.532;2023-04-24T06:08:08;1113.37;;;891.63;;
20935;SDS011;10627;54.514;18.532;2023-04-24T06:13:12;1175.43;;;860.73;;
20935;SDS011;10627;54.514;18.532;2023-04-24T06:18:28;1176.60;;;856.13;;
20935;SDS011;10627;54.514;18.532;2023-04-24T06:23:29;1169.63;;;851.87;;
20935;SDS011;10627;54.514;18.532;2023-04-24T06:28:32;1174.17;;;858.57;;
20935;SDS011;10627;54.514;18.532;2023-04-24T06:33:33;1256.50;;;999.90;;
20935;SDS011;10627;54.514;18.532;2023-04-24T06:38:34;1197.30;;;915.07;;
20935;SDS011;10627;54.514;18.532;2023-04-24T06:43:34;1181.30;;;871.90;;
20935;SDS011;10627;54.514;18.532;2023-04-24T06:48:35;1183.80;;;877.37;;
20935;SDS011;10627;54.514;18.532;2023-04-24T06:53:35;1153.80;;;841.43;;
20935;SDS011;10627;54.514;18.532;2023-04-24T06:58:36;1183.60;;;882.00;;
20935;SDS011;10627;54.514;18.532;2023-04-24T07:03:37;1174.30;;;870.23;;
20935;SDS011;10627;54.514;18.532;2023-04-24T07:08:37;1149.80;;;837.60;;
20935;SDS011;10627;54.514;18.532;2023-04-24T07:13:38;1159.43;;;846.00;;
20935;SDS011;10627;54.514;18.532;2023-04-24T07:18:41;1158.47;;;847.77;;
20935;SDS011;10627;54.514;18.532;2023-04-24T07:23:42;1170.43;;;853.50;;
20935;SDS011;10627;54.514;18.532;2023-04-24T07:28:42;1192.90;;;875.47;;
20935;SDS011;10627;54.514;18.532;2023-04-24T07:33:43;1177.07;;;855.63;;
20935;SDS011;10627;54.514;18.532;2023-04-24T07:38:45;1159.80;;;831.90;;
20935;SDS011;10627;54.514;18.532;2023-04-24T07:43:45;1095.13;;;754.63;;
20935;SDS011;10627;54.514;18.532;2023-04-24T07:48:46;973.00;;;875.53;;
20935;SDS011;10627;54.514;18.532;2023-04-24T07:53:48;966.53;;;873.67;;
20935;SDS011;10627;54.514;18.532;2023-04-24T07:58:48;972.80;;;866.00;;
20935;SDS011;10627;54.514;18.532;2023-04-24T08:03:49;984.73;;;875.97;;
20935;SDS011;10627;54.514;18.532;2023-04-24T08:08:49;1027.97;;;871.17;;
20935;SDS011;10627;54.514;18.532;2023-04-24T08:13:50;1162.67;;;853.73;;
20935;SDS011;10627;54.514;18.532;2023-04-24T08:18:51;1161.80;;;872.53;;
20935;SDS011;10627;54.514;18.532;2023-04-24T08:23:51;1171.87;;;867.00;;
20935;SDS011;10627;54.514;18.532;2023-04-24T08:28:52;1170.40;;;865.83;;
20935;SDS011;10627;54.514;18.532;2023-04-24T08:33:53;1141.10;;;819.27;;
20935;SDS011;10627;54.514;18.532;2023-04-24T08:38:53;1107.27;;;777.47;;
20935;SDS011;10627;54.514;18.532;2023-04-24T08:43:54;1105.67;;;794.77;;
20935;SDS011;10627;54.514;18.532;2023-04-24T08:48:55;1099.90;;;782.40;;
20935;SDS011;10627;54.514;18.532;2023-04-24T08:53:56;1125.40;;;808.63;;
20935;SDS011;10627;54.514;18.532;2023-04-24T08:58:57;1141.67;;;823.23;;
20935;SDS011;10627;54.514;18.532;2023-04-24T09:03:58;1144.73;;;832.53;;
20935;SDS011;10627;54.514;18.532;2023-04-24T09:09:00;1145.90;;;831.20;;
20935;SDS011;10627;54.514;18.532;2023-04-24T09:14:01;1138.50;;;828.73;;
20935;SDS011;10627;54.514;18.532;2023-04-24T09:19:02;1135.90;;;817.43;;
20935;SDS011;10627;54.514;18.532;2023-04-24T09:24:04;1159.87;;;856.90;;
20935;SDS011;10627;54.514;18.532;2023-04-24T09:29:05;1180.53;;;886.00;;
20935;SDS011;10627;54.514;18.532;2023-04-24T09:34:06;1186.30;;;891.47;;
20935;SDS011;10627;54.514;18.532;2023-04-24T09:39:10;1200.63;;;918.03;;
20935;SDS011;10627;54.514;18.532;2023-04-24T09:44:15;1216.50;;;949.17;;
20935;SDS011;10627;54.514;18.532;2023-04-24T09:49:16;1216.07;;;950.30;;
20935;SDS011;10627;54.514;18.532;2023-04-24T09:54:20;1203.50;;;940.53;;
20935;SDS011;10627;54.514;18.532;2023-04-24T09:59:21;1218.20;;;958.87;;
20935;SDS011;10627;54.514;18.532;2023-04-24T10:04:23;1225.60;;;968.07;;
20935;SDS011;10627;54.514;18.532;2023-04-24T10:09:25;1245.67;;;998.77;;
20935;SDS011;10627;54.514;18.532;2023-04-24T10:14:26;1325.63;;;999.90;;
20935;SDS011;10627;54.514;18.532;2023-04-24T10:19:27;1395.88;;;999.90;;
20935;SDS011;10627;54.514;18.532;2023-04-24T10:24:28;1422.82;;;999.90;;
20935;SDS011;10627;54.514;18.532;2023-04-24T10:29:29;1430.57;;;999.90;;
20935;SDS011;10627;54.514;18.532;2023-04-24T10:34:31;1434.80;;;999.90;;
20935;SDS011;10627;54.514;18.532;2023-04-24T10:39:32;1425.75;;;999.90;;
20935;SDS011;10627;54.514;18.532;2023-04-24T10:44:36;1430.00;;;999.90;;
20935;SDS011;10627;54.514;18.532;2023-04-24T10:49:37;1430.97;;;999.90;;
20935;SDS011;10627;54.514;18.532;2023-04-24T10:54:44;1431.55;;;999.90;;
20935;SDS011;10627;54.514;18.532;2023-04-24T10:59:46;1434.95;;;999.90;;
20935;SDS011;10627;54.514;18.532;2023-04-24T11:04:46;1434.82;;;999.90;;
20935;SDS011;10627;54.514;18.532;2023-04-24T11:09:57;1429.25;;;999.90;;
20935;SDS011;10627;54.514;18.532;2023-04-24T11:15:00;1432.95;;;999.90;;
20935;SDS011;10627;54.514;18.532;2023-04-24T11:20:01;1412.00;;;999.90;;
20935;SDS011;10627;54.514;18.532;2023-04-24T11:25:02;1410.28;;;999.90;;
20935;SDS011;10627;54.514;18.532;2023-04-24T11:30:05;1421.65;;;999.90;;
20935;SDS011;10627;54.514;18.532;2023-04-24T11:35:08;1428.75;;;999.90;;
20935;SDS011;10627;54.514;18.532;2023-04-24T11:40:13;1439.68;;;999.90;;
20935;SDS011;10627;54.514;18.532;2023-04-24T11:45:18;1437.65;;;999.90;;
20935;SDS011;10627;54.514;18.532;2023-04-24T11:50:20;1444.22;;;999.90;;
20935;SDS011;10627;54.514;18.532;2023-04-24T12:00:22;1426.13;;;999.90;;
20935;SDS011;10627;54.514;18.532;2023-04-24T12:05:24;1418.25;;;999.90;;
20935;SDS011;10627;54.514;18.532;2023-04-24T12:10:27;1432.22;;;999.90;;
20935;SDS011;10627;54.514;18.532;2023-04-24T12:15:28;1435.97;;;999.90;;
20935;SDS011;10627;54.514;18.532;2023-04-24T12:20:30;1436.32;;;999.90;;
20935;SDS011;10627;54.514;18.532;2023-04-24T12:25:31;1430.90;;;999.90;;
20935;SDS011;10627;54.514;18.532;2023-04-24T12:30:33;1423.20;;;999.90;;
20935;SDS011;10627;54.514;18.532;2023-04-24T12:35:33;1393.70;;;999.90;;
20935;SDS011;10627;54.514;18.532;2023-04-24T12:40:35;1369.28;;;999.90;;
20935;SDS011;10627;54.514;18.532;2023-04-24T12:45:36;1343.60;;;999.90;;
20935;SDS011;10627;54.514;18.532;2023-04-24T12:50:37;1332.73;;;999.90;;
20935;SDS011;10627;54.514;18.532;2023-04-24T12:55:38;1318.20;;;999.90;;
20935;SDS011;10627;54.514;18.532;2023-04-24T13:00:39;1320.78;;;999.90;;
20935;SDS011;10627;54.514;18.532;2023-04-24T13:05:39;1390.07;;;999.90;;
20935;SDS011;10627;54.514;18.532;2023-04-24T13:10:40;1412.82;;;999.90;;
20935;SDS011;10627;54.514;18.532;2023-04-24T13:15:41;1422.43;;;999.90;;
20935;SDS011;10627;54.514;18.532;2023-04-24T13:20:42;1414.15;;;999.90;;
20935;SDS011;10627;54.514;18.532;2023-04-24T13:25:43;1385.55;;;999.90;;
20935;SDS011;10627;54.514;18.532;2023-04-24T13:30:43;1364.60;;;999.90;;
20935;SDS011;10627;54.514;18.532;2023-04-24T13:35:44;1350.65;;;999.90;;
20935;SDS011;10627;54.514;18.532;2023-04-24T13:40:44;1327.28;;;999.90;;
20935;SDS011;10627;54.514;18.532;2023-04-24T13:45:45;1325.80;;;999.90;;
20935;SDS011;10627;54.514;18.532;2023-04-24T13:50:46;1378.03;;;999.90;;
20935;SDS011;10627;54.514;18.532;2023-04-24T13:55:48;1367.65;;;999.90;;
20935;SDS011;10627;54.514;18.532;2023-04-24T14:00:49;1356.60;;;999.90;;
20935;SDS011;10627;54.514;18.532;2023-04-24T14:05:49;1365.85;;;999.90;;
20935;SDS011;10627;54.514;18.532;2023-04-24T14:10:50;1503.68;;;999.90;;
20935;SDS011;10627;54.514;18.532;2023-04-24T14:15:51;1398.93;;;999.90;;
20935;SDS011;10627;54.514;18.532;2023-04-24T14:20:52;1405.75;;;999.90;;
20935;SDS011;10627;54.514;18.532;2023-04-24T14:25:53;1415.65;;;999.90;;
20935;SDS011;10627;54.514;18.532;2023-04-24T14:30:54;1412.25;;;999.90;;
20935;SDS011;10627;54.514;18.532;2023-04-24T14:35:54;1416.40;;;999.90;;
20935;SDS011;10627;54.514;18.532;2023-04-24T14:40:55;1405.45;;;999.90;;
20935;SDS011;10627;54.514;18.532;2023-04-24T14:45:56;1409.68;;;999.90;;
20935;SDS011;10627;54.514;18.532;2023-04-24T14:50:56;1405.50;;;999.90;;
20935;SDS011;10627;54.514;18.532;2023-04-24T14:55:57;1404.82;;;999.90;;
20935;SDS011;10627;54.514;18.532;2023-04-24T15:00:57;1390.88;;;999.90;;
20935;SDS011;10627;54.514;18.532;2023-04-24T15:05:58;1361.85;;;999.90;;
20935;SDS011;10627;54.514;18.532;2023-04-24T15:10:58;1345.20;;;999.90;;
20935;SDS011;10627;54.514;18.532;2023-04-24T15:15:59;1320.77;;;999.90;;
20935;SDS011;10627;54.514;18.532;2023-04-24T15:20:59;1319.30;;;999.90;;
20935;SDS011;10627;54.514;18.532;2023-04-24T15:26:00;1391.15;;;999.90;;
20935;SDS011;10627;54.514;18.532;2023-04-24T15:31:02;1258.53;;;999.90;;
20935;SDS011;10627;54.514;18.532;2023-04-24T15:36:02;1236.20;;;999.90;;
20935;SDS011;10627;54.514;18.532;2023-04-24T15:41:03;1342.23;;;999.90;;
20935;SDS011;10627;54.514;18.532;2023-04-24T15:46:04;1265.37;;;999.90;;
20935;SDS011;10627;54.514;18.532;2023-04-24T15:51:04;1251.43;;;999.90;;
20935;SDS011;10627;54.514;18.532;2023-04-24T15:56:05;1208.80;;;999.90;;
20935;SDS011;10627;54.514;18.532;2023-04-24T16:01:06;1201.67;;;999.90;;
20935;SDS011;10627;54.514;18.532;2023-04-24T16:06:06;1200.70;;;999.90;;
20935;SDS011;10627;54.514;18.532;2023-04-24T16:11:07;1191.90;;;998.27;;
20935;SDS011;10627;54.514;18.532;2023-04-24T16:16:08;1191.13;;;997.43;;
20935;SDS011;10627;54.514;18.532;2023-04-24T16:21:08;1188.73;;;993.27;;
20935;SDS011;10627;54.514;18.532;2023-04-24T16:26:09;1189.20;;;988.00;;
20935;SDS011;10627;54.514;18.532;2023-04-24T16:31:09;1178.33;;;977.57;;
20935;SDS011;10627;54.514;18.532;2023-04-24T16:36:10;1166.10;;;961.80;;
20935;SDS011;10627;54.514;18.532;2023-04-24T16:41:12;1180.40;;;974.50;;
20935;SDS011;10627;54.514;18.532;2023-04-24T16:46:13;1191.67;;;988.40;;
20935;SDS011;10627;54.514;18.532;2023-04-24T16:51:14;1202.83;;;995.87;;
20935;SDS011;10627;54.514;18.532;2023-04-24T16:56:14;1194.07;;;985.73;;
20935;SDS011;10627;54.514;18.532;2023-04-24T17:01:15;1189.53;;;977.03;;
20935;SDS011;10627;54.514;18.532;2023-04-24T17:06:16;1190.60;;;974.37;;
20935;SDS011;10627;54.514;18.532;2023-04-24T17:11:16;1190.07;;;975.53;;
20935;SDS011;10627;54.514;18.532;2023-04-24T17:16:17;1184.30;;;966.77;;
20935;SDS011;10627;54.514;18.532;2023-04-24T17:21:17;1181.97;;;961.97;;
20935;SDS011;10627;54.514;18.532;2023-04-24T17:26:18;1312.93;;;999.90;;
20935;SDS011;10627;54.514;18.532;2023-04-24T17:31:19;1200.10;;;991.53;;
20935;SDS011;10627;54.514;18.532;2023-04-24T17:36:20;1179.10;;;962.57;;
20935;SDS011;10627;54.514;18.532;2023-04-24T17:41:21;1180.63;;;964.97;;
20935;SDS011;10627;54.514;18.532;2023-04-24T17:46:21;1179.50;;;955.80;;
20935;SDS011;10627;54.514;18.532;2023-04-24T17:51:22;1168.63;;;942.77;;
20935;SDS011;10627;54.514;18.532;2023-04-24T17:56:22;1165.47;;;942.93;;
20935;SDS011;10627;54.514;18.532;2023-04-24T18:01:24;1168.63;;;944.57;;
20935;SDS011;10627;54.514;18.532;2023-04-24T18:06:25;1160.27;;;926.03;;
20935;SDS011;10627;54.514;18.532;2023-04-24T18:11:27;1157.00;;;917.07;;
20935;SDS011;10627;54.514;18.532;2023-04-24T18:16:28;1133.00;;;873.70;;
20935;SDS011;10627;54.514;18.532;2023-04-24T18:21:28;1124.67;;;852.40;;
20935;SDS011;10627;54.514;18.532;2023-04-24T18:26:29;1125.87;;;849.87;;
20935;SDS011;10627;54.514;18.532;2023-04-24T18:31:30;1124.10;;;841.77;;
20935;SDS011;10627;54.514;18.532;2023-04-24T18:36:31;1119.40;;;837.50;;
20935;SDS011;10627;54.514;18.532;2023-04-24T18:41:32;1117.27;;;832.10;;
20935;SDS011;10627;54.514;18.532;2023-04-24T18:46:34;1115.17;;;830.20;;
20935;SDS011;10627;54.514;18.532;2023-04-24T18:51:37;1112.87;;;825.33;;
20935;SDS011;10627;54.514;18.532;2023-04-24T18:56:38;1113.33;;;828.03;;
20935;SDS011;10627;54.514;18.532;2023-04-24T19:01:39;1110.50;;;827.57;;
20935;SDS011;10627;54.514;18.532;2023-04-24T19:06:39;1110.30;;;822.50;;
20935;SDS011;10627;54.514;18.532;2023-04-24T19:11:40;1118.50;;;839.30;;
20935;SDS011;10627;54.514;18.532;2023-04-24T19:16:41;1117.70;;;841.50;;
20935;SDS011;10627;54.514;18.532;2023-04-24T19:21:42;1122.23;;;846.27;;
20935;SDS011;10627;54.514;18.532;2023-04-24T19:26:43;1127.83;;;860.20;;
20935;SDS011;10627;54.514;18.532;2023-04-24T19:31:44;1126.27;;;858.77;;
20935;SDS011;10627;54.514;18.532;2023-04-24T19:36:45;1117.00;;;845.23;;
20935;SDS011;10627;54.514;18.532;2023-04-24T19:41:46;1104.57;;;805.10;;
20935;SDS011;10627;54.514;18.532;2023-04-24T19:46:47;1093.77;;;780.10;;
20935;SDS011;10627;54.514;18.532;2023-04-24T19:51:48;1091.77;;;773.17;;
20935;SDS011;10627;54.514;18.532;2023-04-24T19:56:49;1083.90;;;760.30;;
20935;SDS011;10627;54.514;18.532;2023-04-24T20:01:50;1081.63;;;756.63;;
20935;SDS011;10627;54.514;18.532;2023-04-24T20:06:50;1084.00;;;757.10;;
20935;SDS011;10627;54.514;18.532;2023-04-24T20:11:51;1083.17;;;754.37;;
20935;SDS011;10627;54.514;18.532;2023-04-24T20:16:52;1093.63;;;776.40;;
20935;SDS011;10627;54.514;18.532;2023-04-24T20:21:54;1095.77;;;774.80;;
20935;SDS011;10627;54.514;18.532;2023-04-24T20:26:55;1098.23;;;788.03;;
20935;SDS011;10627;54.514;18.532;2023-04-24T20:31:56;1084.60;;;757.57;;
20935;SDS011;10627;54.514;18.532;2023-04-24T20:36:57;1089.30;;;752.40;;
20935;SDS011;10627;54.514;18.532;2023-04-24T20:41:58;1079.13;;;740.50;;
20935;SDS011;10627;54.514;18.532;2023-04-24T20:46:59;1071.40;;;724.25;;
20935;SDS011;10627;54.514;18.532;2023-04-24T20:51:59;1084.50;;;736.60;;
20935;SDS011;10627;54.514;18.532;2023-04-24T20:57:00;1078.90;;;724.90;;
20935;SDS011;10627;54.514;18.532;2023-04-24T21:02:01;1081.25;;;720.25;;
20935;SDS011;10627;54.514;18.532;2023-04-24T21:07:02;1085.17;;;726.97;;
20935;SDS011;10627;54.514;18.532;2023-04-24T21:12:03;1106.63;;;749.33;;
20935;SDS011;10627;54.514;18.532;2023-04-24T21:17:03;1105.73;;;748.27;;
20935;SDS011;10627;54.514;18.532;2023-04-24T21:22:04;1101.03;;;754.33;;
20935;SDS011;10627;54.514;18.532;2023-04-24T21:27:04;1103.53;;;760.63;;
20935;SDS011;10627;54.514;18.532;2023-04-24T21:32:06;1097.43;;;746.93;;
20935;SDS011;10627;54.514;18.532;2023-04-24T21:37:06;1097.60;;;749.10;;
20935;SDS011;10627;54.514;18.532;2023-04-24T21:42:07;1100.37;;;753.37;;
20935;SDS011;10627;54.514;18.532;2023-04-24T21:47:08;1095.63;;;747.67;;
20935;SDS011;10627;54.514;18.532;2023-04-24T21:52:09;1095.53;;;748.77;;
20935;SDS011;10627;54.514;18.532;2023-04-24T21:57:09;1097.67;;;744.67;;
20935;SDS011;10627;54.514;18.532;2023-04-24T22:02:10;1092.20;;;741.40;;
20935;SDS011;10627;54.514;18.532;2023-04-24T22:07:11;1094.60;;;742.93;;
20935;SDS011;10627;54.514;18.532;2023-04-24T22:12:12;1094.80;;;740.67;;
20935;SDS011;10627;54.514;18.532;2023-04-24T22:17:12;1096.47;;;751.07;;
20935;SDS011;10627;54.514;18.532;2023-04-24T22:22:14;1094.67;;;752.30;;
20935;SDS011;10627;54.514;18.532;2023-04-24T22:27:15;1107.87;;;773.53;;
20935;SDS011;10627;54.514;18.532;2023-04-24T22:32:15;1102.20;;;773.37;;
20935;SDS011;10627;54.514;18.532;2023-04-24T22:37:16;1112.27;;;790.10;;
20935;SDS011;10627;54.514;18.532;2023-04-24T22:42:16;1101.97;;;766.80;;
20935;SDS011;10627;54.514;18.532;2023-04-24T22:47:17;1109.57;;;784.97;;
20935;SDS011;10627;54.514;18.532;2023-04-24T22:52:19;1105.13;;;779.23;;
20935;SDS011;10627;54.514;18.532;2023-04-24T22:57:20;1103.10;;;773.30;;
20935;SDS011;10627;54.514;18.532;2023-04-24T23:02:21;1109.23;;;784.80;;
20935;SDS011;10627;54.514;18.532;2023-04-24T23:07:22;1119.13;;;808.40;;
20935;SDS011;10627;54.514;18.532;2023-04-24T23:12:22;1113.13;;;787.23;;
20935;SDS011;10627;54.514;18.532;2023-04-24T23:17:23;1116.93;;;801.33;;
20935;SDS011;10627;54.514;18.532;2023-04-24T23:22:23;1112.33;;;794.50;;
20935;SDS011;10627;54.514;18.532;2023-04-24T23:27:24;1114.27;;;796.50;;
20935;SDS011;10627;54.514;18.532;2023-04-24T23:32:25;1111.13;;;801.50;;
20935;SDS011;10627;54.514;18.532;2023-04-24T23:37:25;1118.60;;;812.60;;
20935;SDS011;10627;54.514;18.532;2023-04-24T23:42:26;1116.23;;;802.63;;
20935;SDS011;10627;54.514;18.532;2023-04-24T23:47:26;1113.97;;;801.43;;
20935;SDS011;10627;54.514;18.532;2023-04-24T23:52:27;1121.90;;;816.17;;
20935;SDS011;10627;54.514;18.532;2023-04-24T23:57:28;1113.87;;;805.10;;
